Bartlesville, OK

6:20 AM CST on November 27, 2014 (GMT -0600)
Bartlesville - Osage County | Change Station
CLOSE
Current Station
Personal Weather Station
Location: Bartlesville, OK
Elevation: 873 ft
Nearby Weather Stations

Elev 873 ft 36.76 °N, 96.04 °W | Updated 10 seconds ago

Clear
Clear
24.1 °F
Feels Like 24 °F
N
0.0
Wind Variable Wind from NNE
Gusts 0.0 mph

Today
High -- | Low -- °F
--% Chance of Precip.
Yesterday
High -- | Low -- °F
Precip. -- in
7:14 AM 5:08 PM
Waxing Crescent, 29% visible
Pressure 30.55 in
Visibility 10.0 miles
Clouds Clear
Windchill 24 °F
Dew Point 20 °F
Humidity 86%
Rainfall 0.00 in
Snow Depth Not available.
UV 0 out of 12
Pollen 3.40 out of 12
Air Quality Not available.
Flu Activity Not available.
METAR KBVO 271153Z AUTO 00000KT 10SM CLR M05/M07 A3054 RMK AO2 SLP345 T10501072 10000 21056 50013

More Conditions Fewer Conditions

Pressure 30.55 in
Visibility 10.0 miles
Clouds Clear
Windchill 24 °F
Dew Point 20 °F
Humidity 86%
Rainfall 0.00 in
Snow Depth Not available.
UV 0 out of 12
Pollen 3.40 out of 12
Air Quality Not available.
Flu Activity Not available.
METAR KBVO 271153Z AUTO 00000KT 10SM CLR M05/M07 A3054 RMK AO2 SLP345 T10501072 10000 21056 50013

More Conditions Fewer Conditions

10-Day Weather Forecast

Almanac

Astronomy

Nov. 27, 2014 Rise Set
Actual Time
Civil Twilight
Nautical Twilight
Astronomical Twilight
Moon
Length of Visible Light
Length of Day
Tomorrow will be .
, % of the Moon is Illuminated

Today's Extremes

State Highs State Lows

Community

WunderPhotos

Upload Photos

1,773,977 photos uploaded!

WunderBlogs® & News

Nearby

Air Quality

  Air Quality AQ Index Pollutant
Not available.

Snow Depth

Station Depth Elevation

Earthquake Activity

City Distance Mag. Time & Date
Minimum magnitude displayed is 2.5.

Coastal Water Temperatures

Place Temperature

Nearby Weather Stations